createdAt,value
2018-04-13T00:01:53.009Z,43.33
2018-04-13T00:04:20.539Z,44.83
2018-04-13T00:06:48.071Z,43.07
2018-04-13T00:09:15.665Z,43.57
2018-04-13T00:11:43.182Z,42.30
2018-04-13T00:14:10.726Z,43.53
2018-04-13T00:16:39.187Z,43.75
2018-04-13T00:19:06.840Z,44.20
2018-04-13T00:21:34.376Z,43.77
2018-04-13T00:24:01.933Z,43.97
2018-04-13T00:26:29.485Z,43.07
2018-04-13T00:28:57.083Z,42.30
2018-04-13T00:31:24.602Z,43.93
2018-04-13T00:33:52.933Z,43.03
2018-04-13T00:36:20.459Z,43.00
2018-04-13T00:38:48.034Z,45.13
2018-04-13T00:41:15.669Z,45.50
2018-04-13T00:43:43.205Z,45.70
2018-04-13T00:46:10.739Z,42.17
2018-04-13T00:48:39.066Z,44.55
2018-04-13T00:51:07.347Z,44.00
2018-04-13T00:53:35.217Z,43.77
2018-04-13T00:56:02.755Z,42.63
2018-04-13T00:58:30.531Z,42.70
2018-04-13T01:00:58.054Z,41.83
2018-04-13T01:03:25.616Z,43.17
2018-04-13T01:05:53.130Z,44.47
2018-04-13T01:08:20.666Z,42.77
2018-04-13T01:10:48.203Z,43.87
2018-04-13T01:13:16.574Z,44.03
2018-04-13T01:15:44.117Z,42.43
2018-04-13T01:18:11.639Z,43.20
2018-04-13T01:20:40.247Z,42.10
2018-04-13T01:23:07.776Z,43.00
2018-04-13T01:25:35.318Z,41.03
2018-04-13T01:28:02.842Z,41.57
2018-04-13T01:30:31.258Z,44.10
2018-04-13T01:32:58.802Z,41.17
2018-04-13T01:35:26.342Z,43.47
2018-04-13T01:37:53.870Z,42.27
2018-04-13T01:40:21.414Z,39.53
2018-04-13T01:42:49.027Z,40.70
2018-04-13T01:45:17.336Z,41.67
2018-04-13T01:47:44.863Z,41.60
2018-04-13T01:50:12.418Z,41.43
2018-04-13T01:52:39.938Z,41.13
2018-04-13T01:55:07.476Z,40.80
2018-04-13T01:57:35.956Z,40.40
2018-04-13T02:00:03.527Z,40.30
2018-04-13T02:02:31.042Z,42.80
2018-04-13T02:04:58.583Z,41.00
2018-04-13T02:07:26.107Z,41.63
2018-04-13T02:09:54.424Z,40.60
2018-04-13T02:12:22.050Z,41.60
2018-04-13T02:14:49.569Z,41.30
2018-04-13T02:17:17.979Z,39.63
2018-04-13T02:19:45.731Z,41.80
2018-04-13T02:22:13.310Z,39.20
2018-04-13T02:24:40.825Z,43.30
2018-04-13T02:27:08.367Z,40.70
2018-04-13T02:29:35.914Z,42.30
2018-04-13T02:32:03.472Z,39.87
2018-04-13T02:34:31.108Z,42.57
2018-04-13T02:36:58.567Z,41.60
2018-04-13T02:39:26.186Z,40.27
2018-04-13T02:41:53.834Z,41.87
2018-04-13T02:44:21.461Z,39.20
2018-04-13T02:46:49.016Z,41.17
2018-04-13T02:49:16.539Z,42.03
2018-04-13T02:51:44.074Z,41.43
2018-04-13T02:54:11.611Z,41.23
2018-04-13T02:56:40.939Z,41.20
2018-04-13T02:59:08.558Z,40.87
2018-04-13T03:01:36.094Z,41.50
2018-04-13T03:04:03.623Z,40.40
2018-04-13T03:06:32.186Z,41.53
2018-04-13T03:09:00.466Z,41.63
2018-04-13T03:11:28.007Z,41.37
2018-04-13T03:13:56.309Z,42.10
2018-04-13T03:16:23.859Z,41.60
2018-04-13T03:18:51.405Z,43.30
2018-04-13T03:21:18.956Z,42.80
2018-04-13T03:23:46.487Z,42.97
2018-04-13T03:26:14.006Z,40.90
2018-04-13T03:28:42.599Z,44.85
2018-04-13T03:31:10.148Z,42.53
2018-04-13T03:33:37.705Z,41.80
2018-04-13T03:36:05.223Z,39.87
2018-04-13T03:38:32.801Z,41.73
2018-04-13T03:41:01.834Z,44.17
2018-04-13T03:43:29.374Z,43.43
2018-04-13T03:45:56.890Z,41.30
2018-04-13T03:48:25.311Z,43.20
2018-04-13T03:50:52.981Z,42.67
2018-04-13T03:53:20.517Z,40.70
2018-04-13T03:55:48.034Z,43.27
2018-04-13T03:58:15.569Z,42.77
2018-04-13T04:00:43.082Z,43.80
2018-04-13T04:03:11.378Z,42.43
2018-04-13T04:05:38.935Z,42.00
2018-04-13T04:08:06.465Z,44.13
2018-04-13T04:10:34.028Z,42.47
2018-04-13T04:13:01.573Z,42.30
2018-04-13T04:15:29.111Z,42.37
2018-04-13T04:17:56.659Z,42.17
2018-04-13T04:20:36.184Z,40.80
2018-04-13T04:23:15.556Z,41.50
2018-04-13T04:26:04.880Z,43.90
2018-04-13T04:28:32.445Z,39.37
2018-04-13T04:31:00.052Z,43.30
2018-04-13T04:33:27.595Z,40.10
2018-04-13T04:35:55.153Z,41.80
2018-04-13T04:38:22.750Z,41.70
2018-04-13T04:40:50.274Z,41.97
2018-04-13T04:43:18.603Z,43.00
2018-04-13T04:45:46.148Z,41.10
2018-04-13T04:48:13.755Z,40.70
2018-04-13T04:50:41.327Z,39.23
2018-04-13T04:53:08.878Z,41.53
2018-04-13T04:55:36.418Z,41.17
2018-04-13T04:58:03.934Z,39.67
2018-04-13T05:00:31.480Z,39.83
2018-04-13T05:02:59.010Z,39.47
2018-04-13T05:05:26.554Z,38.83
2018-04-13T05:07:54.835Z,38.87
2018-04-13T05:10:22.392Z,39.67
2018-04-13T05:12:50.090Z,38.60
2018-04-13T05:15:18.401Z,40.07
2018-04-13T05:17:45.927Z,36.57
2018-04-13T05:20:13.477Z,38.40
2018-04-13T05:22:41.006Z,37.07
2018-04-13T05:25:08.550Z,37.90
2018-04-13T05:27:36.079Z,37.90
2018-04-13T05:30:04.391Z,37.93
2018-04-13T05:32:31.945Z,38.73
2018-04-13T05:34:59.499Z,36.23
2018-04-13T05:37:27.025Z,38.70
2018-04-13T05:39:54.582Z,38.40
2018-04-13T05:42:22.101Z,34.63
2018-04-13T05:44:49.621Z,37.10
2018-04-13T05:47:17.167Z,36.63
2018-04-13T05:49:46.255Z,35.55
2018-04-13T05:52:13.793Z,37.50
2018-04-13T05:54:41.315Z,35.80
2018-04-13T05:57:09.624Z,37.33
2018-04-13T05:59:37.170Z,35.33
2018-04-13T06:02:04.715Z,34.33
2018-04-13T06:04:32.239Z,34.10
2018-04-13T06:06:59.814Z,35.47
2018-04-13T06:09:27.338Z,33.93
2018-04-13T06:11:54.886Z,33.30
2018-04-13T06:14:22.408Z,32.43
2018-04-13T06:16:52.781Z,31.90
2018-04-13T06:19:20.582Z,31.97
2018-04-13T06:21:48.123Z,32.67
2018-04-13T06:24:15.671Z,30.67
2018-04-13T06:26:43.233Z,29.17
2018-04-13T06:29:10.799Z,30.27
2018-04-13T06:31:38.347Z,29.30
2018-04-13T06:34:05.863Z,30.47
2018-04-13T06:36:33.412Z,31.17
2018-04-13T06:39:00.955Z,32.10
2018-04-13T06:41:28.521Z,29.90
2018-04-13T06:43:56.091Z,31.80
2018-04-13T06:46:24.408Z,32.17
2018-04-13T06:48:51.946Z,31.83
2018-04-13T06:51:19.513Z,31.40
2018-04-13T06:53:48.155Z,33.83
2018-04-13T06:56:15.673Z,34.57
2018-04-13T06:58:43.211Z,32.67
2018-04-13T07:01:10.765Z,31.97
2018-04-13T07:03:38.321Z,34.63
2018-04-13T07:06:05.854Z,32.80
2018-04-13T07:08:34.204Z,33.43
2018-04-13T07:11:02.513Z,34.50
2018-04-13T07:13:30.984Z,34.63
2018-04-13T07:15:58.528Z,35.03
2018-04-13T07:18:26.072Z,33.67
2018-04-13T07:20:53.619Z,34.53
2018-04-13T07:23:21.275Z,33.07
2018-04-13T07:25:49.610Z,33.03
2018-04-13T07:28:17.227Z,33.90
2018-04-13T07:30:45.540Z,34.03
2018-04-13T07:33:13.482Z,34.23
2018-04-13T07:35:40.775Z,32.70
2018-04-13T07:38:09.083Z,34.10
2018-04-13T07:40:36.943Z,33.90
2018-04-13T07:43:05.247Z,33.13
2018-04-13T07:45:33.534Z,36.20
2018-04-13T07:48:01.350Z,35.67
2018-04-13T07:50:28.754Z,39.67
2018-04-13T07:52:56.315Z,38.37
2018-04-13T07:55:23.830Z,42.47
2018-04-13T07:57:51.486Z,42.47
2018-04-13T08:00:19.465Z,37.83
2018-04-13T08:02:46.782Z,37.50
2018-04-13T08:05:15.072Z,36.43
2018-04-13T08:07:42.794Z,37.93
2018-04-13T08:10:10.312Z,46.30
2018-04-13T08:12:37.846Z,38.83
2018-04-13T08:15:05.398Z,39.03
2018-04-13T08:17:32.923Z,39.47
2018-04-13T08:20:01.244Z,38.13
2018-04-13T08:22:28.786Z,38.33
2018-04-13T08:24:56.353Z,39.73
2018-04-13T08:27:24.642Z,38.17
2018-04-13T08:29:52.944Z,38.50
2018-04-13T08:32:20.458Z,37.90
2018-04-13T08:34:48.001Z,36.67
2018-04-13T08:37:16.143Z,38.97
2018-04-13T08:39:44.450Z,39.20
2018-04-13T08:42:12.101Z,38.47
2018-04-13T08:44:39.641Z,37.90
2018-04-13T08:47:07.181Z,37.67
2018-04-13T08:49:34.714Z,38.13
2018-04-13T08:52:02.266Z,38.87
2018-04-13T08:54:29.820Z,37.50
2018-04-13T08:56:57.350Z,37.40
2018-04-13T08:59:24.908Z,38.37
2018-04-13T09:01:52.427Z,36.53
2018-04-13T09:04:20.819Z,34.23
2018-04-13T09:06:48.342Z,37.10
2018-04-13T09:09:15.936Z,37.50
2018-04-13T09:11:44.247Z,33.10
2018-04-13T09:14:11.822Z,35.10
2018-04-13T09:16:39.561Z,33.50
2018-04-13T09:19:07.082Z,34.70
2018-04-13T09:21:34.633Z,33.27
2018-04-13T09:24:02.160Z,33.17
2018-04-13T09:26:29.718Z,29.83
2018-04-13T09:28:57.242Z,28.47
2018-04-13T09:31:25.649Z,29.63
2018-04-13T09:33:53.183Z,30.20
2018-04-13T09:36:20.718Z,30.37
2018-04-13T09:38:48.249Z,30.00
2018-04-13T09:41:15.805Z,27.60
2018-04-13T09:43:43.327Z,29.17
2018-04-13T09:46:10.900Z,30.70
2018-04-13T09:48:38.594Z,32.77
2018-04-13T09:51:07.807Z,33.50
2018-04-13T09:53:35.347Z,32.87
2018-04-13T09:56:03.652Z,35.00
2018-04-13T09:58:31.223Z,33.97
2018-04-13T10:01:01.307Z,32.70
2018-04-13T10:06:30.496Z,35.37
2018-04-13T10:08:58.023Z,35.87
2018-04-13T10:11:25.626Z,35.47
2018-04-13T10:13:53.975Z,35.77
2018-04-13T10:16:22.286Z,37.67
2018-04-13T10:18:49.810Z,35.87
2018-04-13T10:21:17.363Z,37.10
2018-04-13T10:23:44.889Z,38.63
2018-04-13T10:26:13.246Z,41.13
2018-04-13T10:28:41.657Z,38.07
2018-04-13T10:31:09.471Z,40.50
2018-04-13T10:33:37.771Z,39.83
2018-04-13T10:36:05.312Z,40.93
2018-04-13T10:38:32.837Z,40.70
2018-04-13T10:41:00.399Z,43.20
2018-04-13T10:43:28.008Z,40.73
2018-04-13T10:45:55.602Z,43.70
2018-04-13T10:48:23.143Z,44.40
2018-04-13T10:50:50.683Z,40.17
2018-04-13T10:53:18.729Z,40.90
2018-04-13T10:55:46.535Z,42.80
2018-04-13T10:58:14.937Z,40.10
2018-04-13T11:00:42.493Z,42.90
2018-04-13T11:03:10.043Z,42.97
2018-04-13T11:05:37.578Z,43.50
2018-04-13T11:08:05.315Z,42.23
2018-04-13T11:10:32.846Z,39.67
2018-04-13T11:13:00.531Z,44.63
2018-04-13T11:15:28.116Z,38.43
2018-04-13T11:17:56.486Z,36.23
2018-04-13T11:20:24.802Z,37.50
2018-04-13T11:22:53.544Z,36.20
2018-04-13T11:25:21.063Z,34.40
2018-04-13T11:27:49.453Z,33.27
2018-04-13T11:30:17.168Z,32.93
2018-04-13T11:32:44.803Z,30.00
2018-04-13T11:35:12.371Z,29.43
2018-04-13T11:37:40.707Z,28.87
2018-04-13T11:40:08.263Z,28.97
2018-04-13T11:42:35.873Z,25.50
2018-04-13T11:45:03.399Z,23.53
2018-04-13T11:47:30.952Z,25.57
2018-04-13T11:49:58.594Z,23.90
2018-04-13T11:52:26.150Z,20.00
2018-04-13T11:54:53.995Z,20.15
2018-04-13T11:57:21.560Z,18.37
2018-04-13T11:59:49.198Z,20.67
2018-04-13T12:02:16.802Z,19.40
2018-04-13T12:04:44.393Z,18.07
2018-04-13T12:07:11.910Z,20.00
2018-04-13T12:09:39.446Z,19.00
2018-04-13T12:12:07.030Z,19.43
2018-04-13T12:16:58.335Z,17.47
2018-04-13T12:19:25.907Z,16.87
2018-04-13T12:21:55.144Z,16.70
2018-04-13T12:24:22.690Z,16.40
2018-04-13T12:26:50.225Z,15.00
2018-04-13T12:29:17.781Z,13.80
2018-04-13T12:31:45.330Z,14.70
2018-04-13T12:34:12.882Z,13.73
2018-04-13T12:36:40.402Z,14.20
2018-04-13T12:39:07.935Z,14.40
2018-04-13T12:41:35.453Z,13.83
2018-04-13T12:44:03.751Z,13.83
2018-04-13T12:46:31.296Z,15.20
2018-04-13T12:48:58.921Z,12.83
2018-04-13T12:51:26.415Z,12.63
2018-04-13T12:53:53.975Z,12.80
2018-04-13T12:56:22.443Z,12.87
2018-04-13T12:58:49.971Z,12.23
2018-04-13T13:01:17.507Z,11.70
2018-04-13T13:03:45.107Z,11.67
2018-04-13T13:06:12.623Z,12.80
2018-04-13T13:08:40.271Z,12.80
2018-04-13T13:11:07.774Z,11.53
2018-04-13T13:13:35.350Z,10.30
2018-04-13T13:16:02.900Z,9.67
2018-04-13T13:18:31.188Z,9.20
2018-04-13T13:20:59.502Z,9.03
2018-04-13T13:23:27.140Z,9.77
2018-04-13T13:25:54.715Z,10.03
2018-04-13T13:28:22.331Z,10.33
2018-04-13T13:30:50.186Z,9.27
2018-04-13T13:33:17.715Z,8.60
2018-04-13T13:35:45.269Z,8.80
2018-04-13T13:38:12.804Z,8.30
2018-04-13T13:40:40.543Z,8.53
2018-04-13T13:43:08.058Z,8.03
2018-04-13T13:45:36.468Z,8.87
2018-04-13T13:48:03.994Z,9.23
2018-04-13T13:50:31.540Z,8.70
2018-04-13T13:52:59.080Z,7.37
2018-04-13T13:55:26.631Z,8.00
2018-04-13T13:57:54.154Z,8.00
2018-04-13T14:00:21.687Z,7.43
2018-04-13T14:02:49.963Z,6.60
2018-04-13T14:05:18.266Z,7.80
2018-04-13T14:07:45.782Z,6.50
2018-04-13T14:10:13.346Z,7.80
2018-04-13T14:12:40.868Z,6.90
2018-04-13T14:15:08.424Z,6.70
2018-04-13T14:17:35.956Z,6.03
2018-04-13T14:20:03.499Z,6.87
2018-04-13T14:22:31.033Z,7.93
2018-04-13T14:24:58.593Z,5.83
2018-04-13T14:27:26.119Z,8.23
2018-04-13T14:29:54.406Z,6.10
2018-04-13T14:32:21.939Z,5.40
2018-04-13T14:34:49.460Z,6.23
2018-04-13T14:37:17.766Z,5.80
2018-04-13T14:39:45.296Z,7.03
2018-04-13T14:42:12.927Z,6.50
2018-04-13T14:44:40.528Z,6.40
2018-04-13T14:47:08.061Z,5.83
2018-04-13T14:49:35.699Z,6.93
2018-04-13T14:52:03.238Z,8.20
2018-04-13T14:54:30.750Z,6.63
2018-04-13T14:56:59.128Z,5.85
2018-04-13T14:59:26.651Z,5.40
2018-04-13T15:01:54.194Z,5.57
2018-04-13T15:04:22.500Z,5.70
2018-04-13T15:06:50.084Z,6.03
2018-04-13T15:09:18.365Z,6.43
2018-04-13T15:11:45.903Z,6.37
2018-04-13T15:14:14.188Z,5.73
2018-04-13T15:16:41.723Z,6.20
2018-04-13T15:19:09.239Z,5.30
2018-04-13T15:21:36.861Z,7.47
2018-04-13T15:24:04.410Z,6.30
2018-04-13T15:26:32.115Z,5.60
2018-04-13T15:28:59.659Z,5.77
2018-04-13T15:31:27.331Z,5.70
2018-04-13T15:33:54.976Z,6.27
2018-04-13T15:36:22.540Z,6.00
2018-04-13T15:38:50.271Z,6.23
2018-04-13T15:41:18.025Z,6.20
2018-04-13T15:43:45.563Z,5.83
2018-04-13T15:46:13.096Z,6.90
2018-04-13T15:48:40.665Z,7.30
2018-04-13T15:51:08.192Z,7.03
2018-04-13T15:53:35.730Z,6.80
2018-04-13T15:56:03.387Z,6.50
2018-04-13T15:58:30.970Z,6.43
2018-04-13T16:01:00.214Z,6.43
2018-04-13T16:03:27.752Z,5.80
2018-04-13T16:05:55.366Z,4.30
2018-04-13T16:08:22.926Z,4.27
2018-04-13T16:10:50.486Z,3.83
2018-04-13T16:13:18.027Z,4.80
2018-04-13T16:15:45.563Z,4.70
2018-04-13T16:18:13.153Z,4.00
2018-04-13T16:20:40.725Z,5.80
2018-04-13T16:23:08.263Z,4.63
2018-04-13T16:25:35.787Z,6.90
2018-04-13T16:28:03.326Z,5.00
2018-04-13T16:30:30.953Z,5.20
2018-04-13T16:32:58.497Z,4.50
2018-04-13T16:35:26.040Z,4.80
2018-04-13T16:37:53.567Z,5.23
2018-04-13T16:40:21.083Z,4.60
2018-04-13T16:42:49.411Z,4.90
2018-04-13T16:45:16.920Z,5.27
2018-04-13T16:47:44.534Z,4.90
2018-04-13T16:50:12.051Z,5.20
2018-04-13T16:52:39.848Z,4.70
2018-04-13T16:55:07.379Z,5.73
2018-04-13T16:57:35.935Z,5.10
2018-04-13T17:00:04.239Z,4.97
2018-04-13T17:02:31.799Z,5.17
2018-04-13T17:04:59.358Z,5.47
2018-04-13T17:07:26.882Z,25.60
2018-04-13T17:12:27.387Z,6.73
2018-04-13T17:14:54.931Z,7.03
2018-04-13T17:17:22.476Z,6.97
2018-04-13T17:19:50.031Z,5.80
2018-04-13T17:22:17.554Z,6.17
2018-04-13T17:24:45.162Z,7.43
2018-04-13T17:27:13.495Z,5.83
2018-04-13T17:29:41.055Z,6.00
2018-04-13T17:32:09.406Z,5.83
2018-04-13T17:34:36.965Z,6.00
2018-04-13T17:37:04.583Z,6.60
2018-04-13T17:39:32.624Z,7.10
2018-04-13T17:42:00.319Z,10.93
2018-04-13T17:44:27.922Z,8.87
2018-04-13T17:46:55.481Z,7.73
2018-04-13T17:49:23.026Z,9.77
2018-04-13T17:51:50.542Z,7.60
2018-04-13T17:54:18.186Z,9.95
2018-04-13T17:56:45.708Z,9.87
2018-04-13T17:59:13.991Z,8.90
2018-04-13T18:01:41.561Z,8.87
2018-04-13T18:04:09.086Z,9.70
2018-04-13T18:06:36.750Z,9.53
2018-04-13T18:09:04.406Z,9.73
2018-04-13T18:11:32.028Z,8.23
2018-04-13T18:13:59.537Z,7.27
2018-04-13T18:16:27.839Z,7.73
2018-04-13T18:18:55.501Z,6.83
2018-04-13T18:21:23.032Z,9.60
2018-04-13T18:23:50.592Z,16.87
2018-04-13T18:26:18.129Z,9.60
2018-04-13T18:28:45.708Z,9.80
2018-04-13T18:31:14.008Z,17.90
2018-04-13T18:33:42.359Z,11.43
2018-04-13T18:36:10.026Z,9.63
2018-04-13T18:38:37.642Z,10.20
2018-04-13T18:41:05.974Z,10.10
2018-04-13T18:43:33.524Z,11.13
2018-04-13T18:46:03.609Z,9.27
2018-04-13T18:48:31.134Z,10.30
2018-04-13T18:50:58.713Z,9.50
2018-04-13T18:53:26.368Z,14.30
2018-04-13T18:55:54.400Z,15.50
2018-04-13T18:58:21.930Z,14.33
2018-04-13T19:00:49.471Z,14.23
2018-04-13T19:03:16.991Z,14.43
2018-04-13T19:05:45.294Z,32.30
2018-04-13T19:08:12.941Z,29.13
2018-04-13T19:10:40.490Z,18.20
2018-04-13T19:13:08.024Z,15.57
2018-04-13T19:15:35.546Z,12.30
2018-04-13T19:18:03.074Z,10.40
2018-04-13T19:20:31.378Z,11.50
2018-04-13T19:22:59.232Z,11.50
2018-04-13T19:25:26.779Z,14.30
2018-04-13T19:27:54.486Z,13.73
2018-04-13T19:30:22.011Z,12.60
2018-04-13T19:32:50.351Z,12.97
2018-04-13T19:35:17.974Z,13.13
2018-04-13T19:37:45.525Z,13.20
2018-04-13T19:40:13.855Z,13.77
2018-04-13T19:42:41.449Z,14.40
2018-04-13T19:45:09.143Z,15.20
2018-04-13T19:47:36.680Z,15.30
2018-04-13T19:50:05.919Z,15.27
2018-04-13T19:52:33.450Z,16.00
2018-04-13T19:55:01.050Z,14.83
2018-04-13T19:57:29.357Z,16.20
2018-04-13T19:59:56.887Z,17.00
2018-04-13T20:02:24.448Z,16.00
2018-04-13T20:04:51.989Z,16.10
2018-04-13T20:07:19.532Z,16.33
2018-04-13T20:09:47.177Z,16.20
2018-04-13T20:12:14.748Z,32.77
2018-04-13T20:14:42.368Z,26.30
2018-04-13T20:17:09.886Z,24.23
2018-04-13T20:19:37.442Z,23.33
2018-04-13T20:22:05.774Z,21.00
2018-04-13T20:24:34.190Z,20.57
2018-04-13T20:27:01.742Z,19.03
2018-04-13T20:29:29.273Z,18.70
2018-04-13T20:31:56.922Z,18.07
2018-04-13T20:34:24.474Z,23.13
2018-04-13T20:36:52.050Z,20.57
2018-04-13T20:39:19.593Z,17.60
2018-04-13T20:41:47.124Z,20.23
2018-04-13T20:44:14.657Z,19.73
2018-04-13T20:46:42.183Z,20.97
2018-04-13T20:49:09.996Z,19.13
2018-04-13T20:51:38.395Z,19.00
2018-04-13T20:54:07.271Z,20.10
2018-04-13T20:56:34.802Z,19.13
2018-04-13T20:59:02.447Z,18.90
2018-04-13T21:01:29.974Z,20.10
2018-04-13T21:03:58.685Z,19.67
2018-04-13T21:06:26.327Z,19.17
2018-04-13T21:08:54.676Z,21.07
2018-04-13T21:11:22.211Z,20.20
2018-04-13T21:13:49.986Z,20.33
2018-04-13T21:16:17.584Z,21.47
2018-04-13T21:18:45.165Z,22.13
2018-04-13T21:21:12.701Z,20.97
2018-04-13T21:23:40.339Z,20.10
2018-04-13T21:26:07.992Z,19.70
2018-04-13T21:28:35.546Z,20.90
2018-04-13T21:31:03.148Z,20.20
2018-04-13T21:33:31.574Z,21.03
2018-04-13T21:35:59.219Z,19.40
2018-04-13T21:38:27.737Z,20.60
2018-04-13T21:40:56.076Z,20.40
2018-04-13T21:43:25.132Z,18.93
2018-04-13T21:45:52.684Z,21.37
2018-04-13T21:48:20.235Z,20.10
2018-04-13T21:50:47.885Z,19.17
2018-04-13T21:53:16.233Z,16.87
2018-04-13T21:55:43.853Z,16.53
2018-04-13T21:58:11.393Z,14.60
2018-04-13T22:00:38.932Z,12.27
2018-04-13T22:03:06.519Z,11.40
2018-04-13T22:05:34.040Z,11.10
2018-04-13T22:08:01.593Z,12.13
2018-04-13T22:10:29.139Z,11.70
2018-04-13T22:13:08.671Z,10.23
2018-04-13T22:15:36.225Z,10.27
2018-04-13T22:18:03.854Z,6.90
2018-04-13T22:20:31.415Z,7.20
2018-04-13T22:22:58.961Z,7.30
2018-04-13T22:25:26.495Z,7.15
2018-04-13T22:27:54.029Z,7.90
2018-04-13T22:30:21.557Z,7.33
2018-04-13T22:32:49.126Z,8.90
2018-04-13T22:35:16.641Z,5.73
2018-04-13T22:37:44.229Z,6.33
2018-04-13T22:40:11.774Z,5.37
2018-04-13T22:42:39.308Z,6.10
2018-04-13T22:45:06.818Z,5.10
2018-04-13T22:47:34.347Z,5.50
2018-04-13T22:50:02.682Z,6.20
2018-04-13T22:52:30.218Z,6.47
2018-04-13T22:54:57.745Z,9.30
2018-04-13T22:57:25.382Z,8.13
2018-04-13T22:59:52.910Z,7.73
2018-04-13T23:02:20.457Z,8.80
2018-04-13T23:04:48.082Z,8.50
2018-04-13T23:07:17.385Z,10.10
2018-04-13T23:09:44.911Z,9.50
2018-04-13T23:12:12.492Z,10.27
2018-04-13T23:14:40.009Z,9.97
2018-04-13T23:17:07.543Z,8.97
2018-04-13T23:19:35.065Z,10.10
2018-04-13T23:22:02.673Z,10.73
2018-04-13T23:24:30.198Z,10.00
2018-04-13T23:26:57.743Z,8.97
2018-04-13T23:29:25.298Z,9.07
2018-04-13T23:31:52.830Z,9.37
2018-04-13T23:34:20.433Z,11.00
2018-04-13T23:36:48.029Z,12.20
2018-04-13T23:39:15.689Z,13.50
2018-04-13T23:41:43.219Z,10.20
2018-04-13T23:44:12.105Z,10.07
2018-04-13T23:46:39.626Z,11.70
2018-04-13T23:49:07.185Z,12.50
2018-04-13T23:51:34.703Z,10.50
2018-04-13T23:54:02.312Z,12.87
2018-04-13T23:56:29.932Z,12.23
2018-04-13T23:58:57.570Z,10.83
